BAW430 EGLL-EIDW
Flight info
| Callsign | BAW430 |
|---|---|
| Flight time | N/A |
| Altitude | 32000 |
| Route | CPT L9 DIDZA N14 BIBPE DCT OKTAD DCT MEDOG DCT KRAGY DCT PEMOB DCT LEMGU M17 VATRY VATRY4L |
| Aircraft | A320/M-SDE3FGHIRWY/LB1 |
Departure
| Time | 2026-05-04 08:04 |
|---|---|
| Airport | London Heathrow Airport (EGLL) |
Arrival
| Time | N/A |
|---|---|
| Airport | Dublin Airport (EIDW) |
| Time | Latitude | Longitude | Altitude | Speed | Heading |
|---|---|---|---|---|---|
| 2026-05-04 07:17 | 51.47188 | -0.48589 | 86 ft | 0 kts | 269° |
| 2026-05-04 07:45 | 51.47188 | -0.48580 | 90 ft | 4 kts | 269° |
| 2026-05-04 07:46 | 51.47188 | -0.48537 | 86 ft | 3 kts | 269° |
| 2026-05-04 07:46 | 51.47189 | -0.48503 | 86 ft | 4 kts | 250° |
| 2026-05-04 07:46 | 51.47203 | -0.48474 | 88 ft | 4 kts | 190° |
| 2026-05-04 07:46 | 51.47226 | -0.48473 | 86 ft | 2 kts | 179° |
| 2026-05-04 07:47 | 51.47227 | -0.48473 | 86 ft | 1 kts | 179° |
| 2026-05-04 07:51 | 51.47217 | -0.48473 | 89 ft | 3 kts | 179° |
| 2026-05-04 07:51 | 51.47154 | -0.48472 | 86 ft | 12 kts | 179° |
| 2026-05-04 07:52 | 51.47074 | -0.48472 | 86 ft | 11 kts | 179° |
| 2026-05-04 07:52 | 51.47011 | -0.48470 | 88 ft | 8 kts | 179° |
| 2026-05-04 07:52 | 51.46950 | -0.48469 | 87 ft | 5 kts | 179° |
| 2026-05-04 07:52 | 51.46905 | -0.48470 | 87 ft | 8 kts | 180° |
| 2026-05-04 07:53 | 51.46843 | -0.48470 | 86 ft | 10 kts | 180° |
| 2026-05-04 07:54 | 51.46655 | -0.47430 | 86 ft | 23 kts | 90° |
| 2026-05-04 07:55 | 51.46656 | -0.47201 | 86 ft | 21 kts | 89° |
| 2026-05-04 07:55 | 51.46657 | -0.46960 | 89 ft | 18 kts | 90° |
| 2026-05-04 07:55 | 51.46658 | -0.46743 | 88 ft | 21 kts | 90° |
| 2026-05-04 07:55 | 51.46658 | -0.46500 | 89 ft | 23 kts | 89° |
| 2026-05-04 07:56 | 51.46660 | -0.46233 | 88 ft | 25 kts | 90° |
| 2026-05-04 07:56 | 51.46660 | -0.45984 | 88 ft | 18 kts | 89° |
| 2026-05-04 07:56 | 51.46661 | -0.45791 | 86 ft | 15 kts | 89° |
| 2026-05-04 07:56 | 51.46663 | -0.45612 | 86 ft | 17 kts | 89° |
| 2026-05-04 07:57 | 51.46663 | -0.45403 | 86 ft | 20 kts | 90° |
| 2026-05-04 07:57 | 51.46662 | -0.45170 | 86 ft | 22 kts | 89° |
| 2026-05-04 07:57 | 51.46665 | -0.44915 | 87 ft | 23 kts | 89° |
| 2026-05-04 07:57 | 51.46665 | -0.44644 | 86 ft | 25 kts | 93° |
| 2026-05-04 07:58 | 51.46666 | -0.44365 | 86 ft | 21 kts | 90° |
| 2026-05-04 07:58 | 51.46666 | -0.44182 | 86 ft | 0 kts | 90° |
| 2026-05-04 08:00 | 51.46666 | -0.44131 | 88 ft | 15 kts | 89° |
| 2026-05-04 08:00 | 51.46666 | -0.43964 | 86 ft | 13 kts | 90° |
| 2026-05-04 08:00 | 51.46667 | -0.43802 | 86 ft | 16 kts | 89° |
| 2026-05-04 08:02 | 51.46494 | -0.43708 | 86 ft | 0 kts | 269° |
| 2026-05-04 08:02 | 51.46494 | -0.43732 | 86 ft | 18 kts | 269° |
| 2026-05-04 08:02 | 51.46494 | -0.43977 | 86 ft | 60 kts | 270° |
| 2026-05-04 08:03 | 51.46492 | -0.44364 | 90 ft | 90 kts | 269° |
| 2026-05-04 08:03 | 51.46496 | -0.44895 | 89 ft | 116 kts | 272° |
| 2026-05-04 08:03 | 51.46482 | -0.45497 | 91 ft | 136 kts | 269° |
| 2026-05-04 08:03 | 51.46492 | -0.46449 | 216 ft | 144 kts | 273° |
| 2026-05-04 08:04 | 51.46477 | -0.48059 | 629 ft | 149 kts | 271° |
| 2026-05-04 08:04 | 51.46441 | -0.49788 | 990 ft | 163 kts | 270° |
| 2026-05-04 08:04 | 51.46422 | -0.51701 | 1293 ft | 181 kts | 271° |
| 2026-05-04 08:04 | 51.46443 | -0.53849 | 1577 ft | 205 kts | 272° |
| 2026-05-04 08:05 | 51.46469 | -0.56277 | 1939 ft | 230 kts | 271° |
| 2026-05-04 08:05 | 51.46490 | -0.58975 | 2429 ft | 253 kts | 271° |
| 2026-05-04 08:05 | 51.46333 | -0.61839 | 3213 ft | 263 kts | 257° |
| 2026-05-04 08:05 | 51.45904 | -0.64677 | 4159 ft | 265 kts | 256° |
| 2026-05-04 08:06 | 51.45614 | -0.67607 | 5132 ft | 267 kts | 266° |
| 2026-05-04 08:06 | 51.45574 | -0.70615 | 5756 ft | 272 kts | 269° |
| 2026-05-04 08:06 | 51.45550 | -0.73635 | 5951 ft | 271 kts | 269° |
| 2026-05-04 08:06 | 51.45525 | -0.76654 | 5998 ft | 270 kts | 268° |
| 2026-05-04 08:08 | 51.46393 | -0.97559 | 6000 ft | 272 kts | 280° |
| 2026-05-04 08:08 | 51.46734 | -1.00541 | 6013 ft | 272 kts | 279° |
| 2026-05-04 08:10 | 51.49018 | -1.20774 | 6007 ft | 272 kts | 279° |
| 2026-05-04 08:11 | 51.49358 | -1.23761 | 6008 ft | 272 kts | 280° |
| 2026-05-04 08:11 | 51.50202 | -1.29677 | 6135 ft | 276 kts | 297° |
| 2026-05-04 08:11 | 51.51319 | -1.32186 | 7025 ft | 278 kts | 308° |
| 2026-05-04 08:12 | 51.52562 | -1.34588 | 7917 ft | 281 kts | 308° |
| 2026-05-04 08:12 | 51.53825 | -1.37003 | 8782 ft | 284 kts | 308° |
| 2026-05-04 08:12 | 51.55113 | -1.39448 | 9617 ft | 288 kts | 309° |
| 2026-05-04 08:12 | 51.56423 | -1.41926 | 10285 ft | 298 kts | 309° |
| 2026-05-04 08:13 | 51.57818 | -1.44569 | 10512 ft | 322 kts | 308° |
| 2026-05-04 08:13 | 51.59316 | -1.47412 | 10703 ft | 345 kts | 309° |
| 2026-05-04 08:13 | 51.60905 | -1.50429 | 11046 ft | 359 kts | 309° |
| 2026-05-04 08:13 | 51.62532 | -1.53519 | 11670 ft | 364 kts | 309° |
| 2026-05-04 08:14 | 51.64179 | -1.56649 | 12325 ft | 368 kts | 309° |
| 2026-05-04 08:14 | 51.65817 | -1.59770 | 12982 ft | 372 kts | 309° |
| 2026-05-04 08:14 | 51.67494 | -1.62971 | 13695 ft | 375 kts | 308° |
| 2026-05-04 08:16 | 51.72553 | -1.91339 | 17910 ft | 393 kts | 282° |
| 2026-05-04 08:16 | 51.73194 | -1.95648 | 18519 ft | 397 kts | 282° |
| 2026-05-04 08:16 | 51.73837 | -1.99991 | 19106 ft | 399 kts | 281° |
| 2026-05-04 08:17 | 51.74483 | -2.04356 | 19696 ft | 401 kts | 281° |
| 2026-05-04 08:17 | 51.75135 | -2.08751 | 20298 ft | 403 kts | 281° |
| 2026-05-04 08:17 | 51.75787 | -2.13165 | 20865 ft | 405 kts | 281° |
| 2026-05-04 08:17 | 51.76439 | -2.17599 | 21402 ft | 407 kts | 281° |
| 2026-05-04 08:19 | 51.81050 | -2.49449 | 24310 ft | 429 kts | 281° |
| 2026-05-04 08:19 | 51.81723 | -2.54167 | 24634 ft | 432 kts | 281° |
| 2026-05-04 08:20 | 51.82394 | -2.58920 | 24975 ft | 435 kts | 281° |
| 2026-05-04 08:20 | 51.83049 | -2.63700 | 25314 ft | 437 kts | 281° |
| 2026-05-04 08:20 | 51.83699 | -2.68514 | 25656 ft | 439 kts | 281° |
| 2026-05-04 08:20 | 51.84347 | -2.73357 | 26001 ft | 442 kts | 281° |
| 2026-05-04 08:21 | 51.84997 | -2.78225 | 26342 ft | 444 kts | 281° |
| 2026-05-04 08:21 | 51.85651 | -2.83120 | 26700 ft | 446 kts | 281° |
| 2026-05-04 08:21 | 51.86307 | -2.88036 | 27043 ft | 449 kts | 281° |
| 2026-05-04 08:21 | 51.86967 | -2.92989 | 27389 ft | 451 kts | 281° |
| 2026-05-04 08:22 | 51.87631 | -2.97985 | 27619 ft | 456 kts | 281° |
| 2026-05-04 08:22 | 51.88301 | -3.03017 | 27896 ft | 459 kts | 281° |
| 2026-05-04 08:24 | 51.92960 | -3.38677 | 30612 ft | 461 kts | 281° |
| 2026-05-04 08:24 | 51.93484 | -3.42747 | 30919 ft | 461 kts | 282° |
| 2026-05-04 08:24 | 51.93794 | -3.45196 | 31074 ft | 462 kts | 282° |
| 2026-05-04 08:24 | 51.94431 | -3.50231 | 31403 ft | 463 kts | 282° |
| 2026-05-04 08:25 | 51.94869 | -3.53675 | 31656 ft | 463 kts | 282° |
| 2026-05-04 08:25 | 51.95744 | -3.60512 | 31992 ft | 463 kts | 282° |
| 2026-05-04 08:25 | 51.97047 | -3.70730 | 32026 ft | 468 kts | 282° |
| 2026-05-04 08:27 | 52.01260 | -4.04639 | 32018 ft | 473 kts | 283° |
| 2026-05-04 08:28 | 52.02535 | -4.15113 | 32008 ft | 473 kts | 283° |
| 2026-05-04 08:28 | 52.03807 | -4.25600 | 32015 ft | 473 kts | 283° |
| 2026-05-04 08:29 | 52.05077 | -4.36088 | 32016 ft | 473 kts | 283° |
| 2026-05-04 08:31 | 52.10060 | -4.78296 | 32014 ft | 477 kts | 283° |
| 2026-05-04 08:33 | 52.16333 | -5.14173 | 32019 ft | 467 kts | 311° |
| 2026-05-04 08:33 | 52.18499 | -5.18065 | 31997 ft | 461 kts | 322° |
| 2026-05-04 08:35 | 52.36785 | -5.34508 | 30858 ft | 448 kts | 339° |
| 2026-05-04 08:35 | 52.39558 | -5.36806 | 29743 ft | 444 kts | 339° |
| 2026-05-04 08:35 | 52.42286 | -5.39077 | 28533 ft | 435 kts | 339° |
| 2026-05-04 08:35 | 52.44950 | -5.41295 | 27504 ft | 424 kts | 338° |
| 2026-05-04 08:37 | 52.61016 | -5.52845 | 22837 ft | 410 kts | 346° |
| 2026-05-04 08:37 | 52.63719 | -5.54231 | 22256 ft | 405 kts | 346° |
| 2026-05-04 08:37 | 52.66390 | -5.55606 | 21721 ft | 400 kts | 345° |
| 2026-05-04 08:38 | 52.69032 | -5.56970 | 21164 ft | 396 kts | 345° |
| 2026-05-04 08:38 | 52.71651 | -5.58328 | 20614 ft | 394 kts | 345° |
| 2026-05-04 08:38 | 52.74255 | -5.59678 | 20074 ft | 390 kts | 345° |
| 2026-05-04 08:40 | 52.92078 | -5.68906 | 16270 ft | 372 kts | 344° |
| 2026-05-04 08:40 | 52.94531 | -5.70178 | 15756 ft | 367 kts | 345° |
| 2026-05-04 08:40 | 52.96954 | -5.71435 | 15245 ft | 363 kts | 344° |
| 2026-05-04 08:41 | 52.99351 | -5.72685 | 14740 ft | 359 kts | 343° |
| 2026-05-04 08:41 | 53.01718 | -5.73927 | 14248 ft | 355 kts | 344° |
| 2026-05-04 08:41 | 53.04057 | -5.75154 | 13730 ft | 346 kts | 343° |
| 2026-05-04 08:41 | 53.06290 | -5.76332 | 13242 ft | 328 kts | 343° |
| 2026-05-04 08:42 | 53.08419 | -5.77456 | 12789 ft | 313 kts | 342° |
| 2026-05-04 08:42 | 53.10381 | -5.78840 | 12365 ft | 301 kts | 332° |
| 2026-05-04 08:42 | 53.12105 | -5.80704 | 11953 ft | 290 kts | 323° |
| 2026-05-04 08:42 | 53.13567 | -5.82931 | 11553 ft | 281 kts | 313° |
| 2026-05-04 08:43 | 53.14755 | -5.85441 | 11223 ft | 269 kts | 303° |
| 2026-05-04 08:43 | 53.15635 | -5.88055 | 11159 ft | 249 kts | 295° |
| 2026-05-04 08:43 | 53.16316 | -5.90659 | 11070 ft | 244 kts | 294° |
| 2026-05-04 08:43 | 53.16988 | -5.93230 | 10963 ft | 241 kts | 294° |
| 2026-05-04 08:44 | 53.17657 | -5.95786 | 10858 ft | 240 kts | 294° |
| 2026-05-04 08:44 | 53.18325 | -5.98337 | 10749 ft | 240 kts | 294° |
| 2026-05-04 08:46 | 53.22943 | -6.16149 | 9800 ft | 243 kts | 296° |
| 2026-05-04 08:46 | 53.23613 | -6.18737 | 9395 ft | 249 kts | 296° |
| 2026-05-04 08:46 | 53.24318 | -6.21468 | 8995 ft | 256 kts | 296° |
| 2026-05-04 08:46 | 53.25021 | -6.24195 | 8579 ft | 261 kts | 292° |
| 2026-05-04 08:47 | 53.25733 | -6.26995 | 8176 ft | 264 kts | 294° |
| 2026-05-04 08:47 | 53.26456 | -6.29838 | 7757 ft | 268 kts | 294° |
| 2026-05-04 08:47 | 53.27181 | -6.32694 | 7502 ft | 264 kts | 295° |
| 2026-05-04 08:47 | 53.27905 | -6.35529 | 7125 ft | 266 kts | 296° |
| 2026-05-04 08:48 | 53.28637 | -6.38379 | 6790 ft | 266 kts | 296° |
| 2026-05-04 08:48 | 53.29358 | -6.41188 | 6540 ft | 263 kts | 295° |
| 2026-05-04 08:48 | 53.30072 | -6.43979 | 6056 ft | 260 kts | 295° |
| 2026-05-04 08:48 | 53.30775 | -6.46735 | 5515 ft | 257 kts | 295° |
| 2026-05-04 08:49 | 53.31471 | -6.49466 | 5059 ft | 251 kts | 295° |
| 2026-05-04 08:50 | 53.34922 | -6.63140 | 5017 ft | 175 kts | 296° |
| 2026-05-04 08:50 | 53.35405 | -6.64975 | 5016 ft | 170 kts | 303° |
| 2026-05-04 08:51 | 53.36083 | -6.66562 | 5018 ft | 167 kts | 317° |
| 2026-05-04 08:51 | 53.36960 | -6.67804 | 5022 ft | 165 kts | 330° |
| 2026-05-04 08:51 | 53.37982 | -6.68649 | 4947 ft | 163 kts | 343° |
| 2026-05-04 08:51 | 53.39077 | -6.69052 | 4818 ft | 160 kts | 356° |
| 2026-05-04 08:52 | 53.40185 | -6.69018 | 4688 ft | 159 kts | 6° |
| 2026-05-04 08:52 | 53.41281 | -6.68847 | 4558 ft | 158 kts | 6° |
| 2026-05-04 08:52 | 53.42373 | -6.68678 | 4425 ft | 155 kts | 6° |
| 2026-05-04 08:52 | 53.43420 | -6.68518 | 4289 ft | 147 kts | 6° |
| 2026-05-04 08:53 | 53.44377 | -6.68105 | 4145 ft | 140 kts | 27° |
| 2026-05-04 08:54 | 53.45280 | -6.57487 | 3286 ft | 138 kts | 90° |
| 2026-05-04 08:55 | 53.45198 | -6.55896 | 3151 ft | 139 kts | 91° |
| 2026-05-04 08:55 | 53.45113 | -6.54279 | 3019 ft | 139 kts | 91° |
| 2026-05-04 08:55 | 53.45028 | -6.52651 | 2912 ft | 137 kts | 90° |
| 2026-05-04 08:55 | 53.44946 | -6.51084 | 2973 ft | 139 kts | 91° |
| 2026-05-04 08:57 | 53.44356 | -6.39949 | 1704 ft | 136 kts | 90° |